Time;durP1;ratioP1;P1;durP2;ratioP2;P2;SDS_P1;SDS_P2;PMS_P1;PMS_P2;Temp;Humidity;BMP_temperature;BMP_pressure;BME280_temperature;BME280_humidity;BME280_pressure;Samples;Min_cycle;Max_cycle;Signal;HPM_P1;HPM_P2
2022/10/23 00:01:25;;;;;;;8.93;3.53;;;11.40;99.90;;;;;;4332109;28;10000581;-72
2022/10/23 00:03:57;;;;;;;3.80;2.58;;;11.40;99.90;;;;;;5026218;28;20028;-72
2022/10/23 00:06:23;;;;;;;2.40;2.17;;;11.40;99.90;;;;;;5030798;28;20139;-72
2022/10/23 00:08:49;;;;;;;5.30;2.42;;;11.40;99.90;;;;;;5035934;28;20033;-72
2022/10/23 00:11:21;;;;;;;4.85;2.80;;;11.40;99.90;;;;;;5024394;28;20551;-72
2022/10/23 00:13:47;;;;;;;6.88;2.95;;;11.40;99.90;;;;;;5026674;28;20025;-72
2022/10/23 00:16:13;;;;;;;4.47;2.70;;;11.30;99.90;;;;;;5025011;28;20068;-72
2022/10/23 00:18:39;;;;;;;3.67;2.72;;;11.30;99.90;;;;;;5033361;28;20061;-72
2022/10/23 00:21:07;;;;;;;7.70;3.40;;;11.30;99.90;;;;;;5019654;28;20041;-71
2022/10/23 00:23:33;;;;;;;3.70;3.00;;;11.30;99.90;;;;;;5022346;28;20029;-71
2022/10/23 00:25:59;;;;;;;5.72;2.80;;;11.30;99.90;;;;;;5018236;28;20045;-71
2022/10/23 00:28:25;;;;;;;5.80;2.97;;;11.20;99.90;;;;;;5021127;28;20079;-72
2022/10/23 00:30:51;;;;;;;5.93;2.90;;;11.20;99.90;;;;;;5017086;28;20049;-72
2022/10/23 00:33:16;;;;;;;4.85;3.28;;;11.20;99.90;;;;;;5023681;28;20105;-72
2022/10/23 00:35:42;;;;;;;5.47;2.97;;;11.20;99.90;;;;;;5025423;28;20064;-72
2022/10/23 00:38:09;;;;;;;8.63;3.33;;;11.20;99.90;;;;;;5032129;28;20571;-72
2022/10/23 00:40:36;;;;;;;5.95;3.33;;;11.20;99.90;;;;;;5036216;28;21097;-72
2022/10/23 00:43:02;;;;;;;6.50;3.40;;;11.20;99.90;;;;;;5033083;28;20123;-72
2022/10/23 00:45:32;;;;;;;4.72;3.08;;;11.20;99.90;;;;;;5033055;28;20064;-72
2022/10/23 00:48:01;;;;;;;5.07;2.95;;;11.20;99.90;;;;;;5036089;28;20525;-72
2022/10/23 00:50:30;;;;;;;4.57;3.50;;;11.20;99.90;;;;;;5035865;28;20020;-71
2022/10/23 00:53:00;;;;;;;6.90;3.58;;;11.20;99.90;;;;;;5042490;28;20116;-71
2022/10/23 00:55:28;;;;;;;8.13;3.70;;;11.10;99.90;;;;;;5034575;28;20022;-72
2022/10/23 00:57:54;;;;;;;8.00;3.85;;;11.10;99.90;;;;;;5033037;28;20029;-71
2022/10/23 01:00:19;;;;;;;4.38;3.28;;;11.10;99.90;;;;;;5035198;28;20033;-71
2022/10/23 01:02:45;;;;;;;4.68;3.35;;;11.10;99.90;;;;;;5031438;28;20397;-72
2022/10/23 01:05:11;;;;;;;4.13;3.20;;;11.10;99.90;;;;;;5036203;28;20058;-72
2022/10/23 01:08:00;;;;;;;4.10;2.83;;;11.00;99.90;;;;;;5036281;28;20030;-71
2022/10/23 01:10:50;;;;;;;5.32;2.55;;;11.00;99.90;;;;;;5037155;28;20529;-72
2022/10/23 01:13:36;;;;;;;3.97;2.63;;;11.00;99.90;;;;;;5033493;28;20079;-71
2022/10/23 01:16:20;;;;;;;6.25;3.10;;;11.00;99.90;;;;;;5036913;28;20641;-71
2022/10/23 01:19:02;;;;;;;6.90;3.08;;;11.00;99.90;;;;;;5034590;28;20064;-71
2022/10/23 01:21:42;;;;;;;7.03;3.10;;;11.00;99.90;;;;;;5036933;28;20029;-71
2022/10/23 01:24:36;;;;;;;4.53;2.78;;;11.00;99.90;;;;;;5038622;28;20045;-72
2022/10/23 01:27:21;;;;;;;4.28;2.85;;;11.00;99.90;;;;;;5046479;28;20033;-71
2022/10/23 01:30:10;;;;;;;4.68;3.10;;;11.00;99.90;;;;;;5041653;28;20045;-72
2022/10/23 01:32:49;;;;;;;4.88;2.65;;;11.00;99.90;;;;;;5040825;28;20048;-72
2022/10/23 01:35:23;;;;;;;3.38;2.40;;;10.90;99.90;;;;;;5035839;28;20394;-72
2022/10/23 01:37:50;;;;;;;;;;;10.90;99.90;;;;;;5040280;28;20528;-72
2022/10/23 01:40:49;;;;;;;4.85;3.00;;;10.90;99.90;;;;;;5041541;28;19915;-72
2022/10/23 01:43:26;;;;;;;5.20;2.53;;;10.90;99.90;;;;;;5038307;28;20493;-72
2022/10/23 01:46:03;;;;;;;5.13;2.60;;;10.90;99.90;;;;;;5039194;28;20037;-72
2022/10/23 01:48:32;;;;;;;3.33;2.50;;;10.90;99.90;;;;;;5030933;28;20033;-72
2022/10/23 01:51:04;;;;;;;3.78;2.38;;;10.80;99.90;;;;;;5031230;28;20025;-72
2022/10/23 01:53:35;;;;;;;2.97;1.95;;;10.90;99.90;;;;;;5032725;28;20072;-72
2022/10/23 01:56:02;;;;;;;3.78;2.30;;;10.80;99.90;;;;;;5032382;28;20060;-72
2022/10/23 01:58:30;;;;;;;3.00;2.33;;;10.80;99.90;;;;;;5037565;28;20353;-72
2022/10/23 02:01:00;;;;;;;3.85;2.25;;;10.80;99.90;;;;;;5033726;28;20036;-71
2022/10/23 02:03:29;;;;;;;5.07;2.20;;;10.80;99.90;;;;;;5027856;28;20092;-72
2022/10/23 02:05:55;;;;;;;3.63;1.92;;;10.70;99.90;;;;;;5031460;28;20490;-72
2022/10/23 02:08:21;;;;;;;4.88;2.03;;;10.70;99.90;;;;;;5034436;28;20039;-71
2022/10/23 02:11:06;;;;;;;4.68;2.35;;;10.70;99.90;;;;;;5028378;28;20116;-72
2022/10/23 02:13:47;;;;;;;5.93;2.08;;;10.70;99.90;;;;;;5028107;28;20025;-71
2022/10/23 02:16:29;;;;;;;5.93;2.00;;;10.60;99.90;;;;;;5030181;28;20033;-72
2022/10/23 02:19:06;;;;;;;4.72;2.33;;;10.60;99.90;;;;;;5021741;28;20481;-72
2022/10/23 02:22:21;;;;;;;4.93;2.60;;;10.50;99.90;;;;;;5027528;28;20047;-72
2022/10/23 02:25:14;;;;;;;4.18;2.42;;;10.50;99.90;;;;;;5016221;28;20496;-72
2022/10/23 02:27:44;;;;;;;5.30;2.85;;;10.40;99.90;;;;;;5028889;28;20111;-72
2022/10/23 02:30:13;;;;;;;3.78;2.83;;;10.40;99.90;;;;;;5030595;28;20041;-72
2022/10/23 02:32:43;;;;;;;8.88;3.40;;;10.40;99.90;;;;;;5031200;28;20063;-72
2022/10/23 02:35:10;;;;;;;8.70;3.08;;;10.40;99.90;;;;;;5031749;28;20036;-72
2022/10/23 02:37:35;;;;;;;3.67;2.97;;;10.40;99.90;;;;;;5031542;28;20029;-72
2022/10/23 02:40:02;;;;;;;5.93;2.40;;;10.40;99.90;;;;;;5031074;28;20043;-72
2022/10/23 02:42:56;;;;;;;2.42;2.22;;;10.30;99.90;;;;;;5024723;28;20028;-72
2022/10/23 02:45:35;;;;;;;4.40;2.70;;;10.30;99.90;;;;;;5026479;28;20440;-72
2022/10/23 02:48:09;;;;;;;4.50;2.75;;;10.30;99.90;;;;;;5029684;28;20040;-72
2022/10/23 02:50:38;;;;;;;8.43;3.90;;;10.30;99.90;;;;;;5031752;28;20179;-72
2022/10/23 02:53:14;;;;;;;4.75;3.03;;;10.30;99.90;;;;;;5030117;28;20112;-72
2022/10/23 02:55:45;;;;;;;11.73;3.42;;;10.30;99.90;;;;;;5028712;28;20112;-72
2022/10/23 02:58:39;;;;;;;6.10;3.00;;;10.30;99.90;;;;;;5031987;28;20060;-72
2022/10/23 03:01:11;;;;;;;5.63;3.15;;;10.30;99.90;;;;;;5031948;28;20713;-72
2022/10/23 03:03:52;;;;;;;6.82;3.22;;;10.30;99.90;;;;;;5027209;28;20486;-72
2022/10/23 03:06:18;;;;;;;5.07;3.40;;;10.30;99.90;;;;;;5032541;28;20503;-72
2022/10/23 03:08:58;;;;;;;10.00;4.28;;;10.30;99.90;;;;;;5039155;28;20318;-73
2022/10/23 03:11:25;;;;;;;6.55;4.22;;;10.30;99.90;;;;;;5033526;28;20099;-72
2022/10/23 03:13:51;;;;;;;6.38;4.40;;;10.20;99.90;;;;;;5024828;28;20049;-72
2022/10/23 03:16:16;;;;;;;7.25;5.00;;;10.20;99.90;;;;;;5032038;28;21511;-72
2022/10/23 03:18:42;;;;;;;8.48;4.72;;;10.20;99.90;;;;;;5034501;28;20172;-72
2022/10/23 03:21:08;;;;;;;7.55;4.40;;;10.20;99.90;;;;;;5033613;28;20119;-72
2022/10/23 03:23:33;;;;;;;6.38;4.13;;;10.20;99.90;;;;;;5025175;28;20049;-72
2022/10/23 03:25:59;;;;;;;6.07;5.10;;;10.20;99.90;;;;;;5036513;28;20025;-72
2022/10/23 03:28:25;;;;;;;6.13;5.10;;;10.10;99.90;;;;;;5033321;28;20492;-72
2022/10/23 03:30:51;;;;;;;5.13;4.63;;;10.10;99.90;;;;;;5031475;28;20045;-72
2022/10/23 03:33:17;;;;;;;6.25;4.50;;;10.10;99.90;;;;;;5033551;28;20029;-72
2022/10/23 03:35:42;;;;;;;5.57;3.90;;;10.10;99.90;;;;;;5033248;28;20061;-72
2022/10/23 03:38:08;;;;;;;4.00;3.38;;;10.00;99.90;;;;;;5029390;28;20034;-72
2022/10/23 03:40:34;;;;;;;3.72;3.33;;;9.90;99.90;;;;;;5031514;28;20061;-72
2022/10/23 03:42:59;;;;;;;4.47;3.08;;;9.90;99.90;;;;;;5028050;28;20594;-72
2022/10/23 03:45:25;;;;;;;3.90;3.47;;;9.90;99.90;;;;;;5027786;28;20040;-72
2022/10/23 03:47:51;;;;;;;5.47;3.42;;;10.00;99.90;;;;;;5030846;28;20173;-72
2022/10/23 03:50:17;;;;;;;3.70;3.25;;;10.00;99.90;;;;;;5025677;28;20155;-72
2022/10/23 03:52:43;;;;;;;3.80;2.90;;;10.00;99.90;;;;;;5026496;28;20021;-72
2022/10/23 03:55:10;;;;;;;2.13;1.92;;;10.00;99.90;;;;;;5026618;28;20033;-72
2022/10/23 03:57:35;;;;;;;8.32;2.00;;;10.00;99.90;;;;;;5027354;28;20443;-72
2022/10/23 04:00:01;;;;;;;2.10;2.00;;;10.00;99.90;;;;;;5027365;28;20037;-72
2022/10/23 04:02:27;;;;;;;5.75;1.83;;;10.00;99.90;;;;;;5022257;28;20029;-72
2022/10/23 04:04:53;;;;;;;9.70;2.00;;;10.00;99.90;;;;;;5023240;28;20087;-72
2022/10/23 04:07:19;;;;;;;20.95;2.40;;;9.80;99.90;;;;;;5020047;28;20652;-72
2022/10/23 04:09:44;;;;;;;19.98;2.40;;;9.70;99.90;;;;;;5026188;28;20126;-73
2022/10/23 04:12:10;;;;;;;14.57;2.20;;;9.50;99.90;;;;;;5029789;28;20048;-72
2022/10/23 04:14:36;;;;;;;38.72;2.88;;;9.40;99.90;;;;;;5022039;28;20492;-72
2022/10/23 04:17:01;;;;;;;1.95;1.83;;;9.20;99.90;;;;;;5028972;28;20025;-72
2022/10/23 04:19:27;;;;;;;1.83;1.73;;;9.20;99.90;;;;;;5029360;28;20512;-72
2022/10/23 04:21:53;;;;;;;2.10;1.90;;;9.20;99.90;;;;;;5032850;28;20108;-72
2022/10/23 04:24:18;;;;;;;8.98;2.15;;;9.30;99.90;;;;;;5024417;28;20033;-72
2022/10/23 04:26:44;;;;;;;4.03;1.70;;;9.40;99.90;;;;;;5026860;28;20013;-72
2022/10/23 04:29:10;;;;;;;1.80;1.70;;;9.40;99.90;;;;;;5023812;28;20040;-72
2022/10/23 04:31:35;;;;;;;1.70;1.60;;;9.40;99.90;;;;;;5025978;28;20098;-72
2022/10/23 04:34:01;;;;;;;4.47;1.58;;;9.40;99.90;;;;;;5023409;28;20017;-72
2022/10/23 04:36:26;;;;;;;2.78;1.60;;;9.40;99.90;;;;;;5020161;28;20025;-72
2022/10/23 04:38:52;;;;;;;6.07;2.10;;;9.40;99.90;;;;;;5025097;28;20518;-72
2022/10/23 04:41:18;;;;;;;7.40;2.90;;;9.40;99.90;;;;;;5030736;28;20376;-72
2022/10/23 04:43:44;;;;;;;4.50;2.05;;;9.50;99.90;;;;;;5033091;28;20056;-72
2022/10/23 04:46:09;;;;;;;3.05;1.85;;;9.50;99.90;;;;;;5028252;28;20030;-72
2022/10/23 04:48:35;;;;;;;4.55;1.50;;;9.60;99.90;;;;;;5030827;28;20033;-72
2022/10/23 04:51:03;;;;;;;1.70;1.60;;;9.50;99.90;;;;;;5032299;28;20492;-72
2022/10/23 04:53:29;;;;;;;2.10;1.55;;;9.50;99.90;;;;;;5028735;28;20028;-72
2022/10/23 04:55:58;;;;;;;8.10;2.15;;;9.50;99.90;;;;;;5034919;28;20045;-72
2022/10/23 04:58:24;;;;;;;4.78;2.58;;;9.50;99.90;;;;;;5026590;28;20036;-72
2022/10/23 05:00:50;;;;;;;3.17;2.70;;;9.50;99.90;;;;;;5035040;28;20025;-72
2022/10/23 05:03:18;;;;;;;3.25;2.58;;;9.50;99.90;;;;;;5027094;28;20040;-72
2022/10/23 05:05:44;;;;;;;3.05;2.53;;;9.50;99.90;;;;;;5025657;28;20672;-72
2022/10/23 05:08:10;;;;;;;2.80;2.60;;;9.50;99.90;;;;;;5026653;28;20493;-72
2022/10/23 05:10:37;;;;;;;2.13;1.98;;;9.50;99.90;;;;;;5026532;28;20040;-72
2022/10/23 05:13:03;;;;;;;2.15;1.95;;;9.50;99.90;;;;;;5030839;28;20036;-72
2022/10/23 05:15:29;;;;;;;2.20;2.10;;;9.40;99.90;;;;;;5025120;28;20481;-72
2022/10/23 05:18:06;;;;;;;2.72;2.50;;;9.40;99.90;;;;;;5031661;28;20036;-72
2022/10/23 05:20:35;;;;;;;3.78;2.30;;;9.50;99.90;;;;;;5030023;28;20114;-72
2022/10/23 05:23:02;;;;;;;2.22;2.03;;;9.50;99.90;;;;;;5026569;28;20032;-72
2022/10/23 05:25:29;;;;;;;1.95;1.85;;;9.40;99.90;;;;;;5021282;28;20033;-72
2022/10/23 05:27:55;;;;;;;1.90;1.80;;;9.40;99.90;;;;;;5032089;28;20033;-72
2022/10/23 05:30:20;;;;;;;2.28;2.17;;;9.40;99.90;;;;;;5027356;28;20041;-73
2022/10/23 05:32:46;;;;;;;4.57;2.35;;;9.30;99.90;;;;;;5034394;28;20379;-72
2022/10/23 05:35:17;;;;;;;2.40;2.20;;;9.40;99.90;;;;;;5025504;28;20025;-73
2022/10/23 05:37:45;;;;;;;2.60;2.40;;;9.30;99.90;;;;;;5030248;28;20037;-73
2022/10/23 05:40:11;;;;;;;3.20;2.90;;;9.30;99.90;;;;;;5035039;28;20037;-72
2022/10/23 05:42:37;;;;;;;5.88;3.40;;;9.20;99.90;;;;;;5033435;28;20118;-72
2022/10/23 05:45:03;;;;;;;5.50;4.43;;;9.20;99.90;;;;;;5030918;28;20481;-72
2022/10/23 05:47:30;;;;;;;6.15;4.75;;;9.30;99.90;;;;;;5035182;28;20624;-72
2022/10/23 05:49:56;;;;;;;4.30;3.92;;;9.30;99.90;;;;;;5029945;28;20038;-72
2022/10/23 05:52:21;;;;;;;4.47;3.67;;;9.40;99.90;;;;;;5028445;28;20021;-72
2022/10/23 05:54:49;;;;;;;3.58;3.28;;;9.40;99.90;;;;;;5034309;28;20112;-72
2022/10/23 05:57:15;;;;;;;3.47;3.13;;;9.40;99.90;;;;;;5033527;28;20033;-72
2022/10/23 05:59:40;;;;;;;3.35;3.15;;;9.40;99.90;;;;;;5036388;28;20623;-72
2022/10/23 06:02:06;;;;;;;4.28;3.75;;;9.40;99.90;;;;;;5029464;28;20017;-72
2022/10/23 06:04:34;;;;;;;4.13;3.72;;;9.50;99.90;;;;;;5027280;28;20032;-72
2022/10/23 06:06:59;;;;;;;4.80;4.35;;;9.50;99.90;;;;;;5025831;28;20116;-72
2022/10/23 06:09:25;;;;;;;5.35;4.18;;;9.50;99.90;;;;;;5032951;28;20109;-72
2022/10/23 06:11:51;;;;;;;6.18;4.50;;;9.50;99.90;;;;;;5026664;28;20036;-72
2022/10/23 06:14:16;;;;;;;6.28;5.60;;;9.50;99.90;;;;;;5026452;28;20013;-72
2022/10/23 06:16:42;;;;;;;6.85;6.15;;;9.50;99.90;;;;;;5028477;28;20032;-72
2022/10/23 06:19:12;;;;;;;7.10;6.38;;;9.50;99.90;;;;;;5038836;28;20078;-72
2022/10/23 06:21:39;;;;;;;7.00;6.03;;;9.50;99.90;;;;;;5029071;28;20025;-72
2022/10/23 06:24:07;;;;;;;8.63;6.07;;;9.50;99.90;;;;;;5028394;28;20035;-72
2022/10/23 06:26:33;;;;;;;5.57;4.90;;;9.50;99.90;;;;;;5035661;28;20448;-72
2022/10/23 06:28:59;;;;;;;5.13;4.63;;;9.50;99.90;;;;;;4689892;28;10001215;-72
2022/10/23 06:31:27;;;;;;;6.43;4.85;;;9.50;99.90;;;;;;5024396;28;20025;-72
2022/10/23 06:33:54;;;;;;;10.05;6.57;;;9.50;99.90;;;;;;5026712;28;20060;-72
2022/10/23 06:36:19;;;;;;;9.82;7.60;;;9.50;99.90;;;;;;5023482;28;20021;-73
2022/10/23 06:38:45;;;;;;;10.18;7.95;;;9.50;99.90;;;;;;5025958;28;20040;-72
2022/10/23 06:41:13;;;;;;;9.27;7.50;;;9.50;99.90;;;;;;5028638;28;20681;-73
2022/10/23 06:43:39;;;;;;;7.85;6.90;;;9.60;99.90;;;;;;5026310;28;20076;-73
2022/10/23 06:46:05;;;;;;;6.22;5.15;;;9.60;99.90;;;;;;5042065;28;20485;-73
2022/10/23 06:48:31;;;;;;;5.30;4.80;;;9.70;99.90;;;;;;5039300;28;20049;-73
2022/10/23 06:50:58;;;;;;;4.72;4.20;;;9.70;99.90;;;;;;5031726;28;20036;-73
2022/10/23 06:53:24;;;;;;;5.93;4.07;;;9.70;99.90;;;;;;5034510;28;20063;-73
2022/10/23 06:55:50;;;;;;;9.63;5.60;;;9.70;99.90;;;;;;5029336;28;20033;-73
2022/10/23 06:58:17;;;;;;;11.00;7.20;;;9.70;99.90;;;;;;5041168;28;20021;-72
2022/10/23 07:00:43;;;;;;;12.95;11.00;;;9.70;99.90;;;;;;5028473;28;20547;-72
2022/10/23 07:03:09;;;;;;;12.32;9.90;;;9.80;99.90;;;;;;5037274;28;20108;-72
2022/10/23 07:05:35;;;;;;;9.00;8.13;;;9.80;99.90;;;;;;5026659;28;20560;-72
2022/10/23 07:08:02;;;;;;;8.27;7.47;;;9.90;99.90;;;;;;5031400;28;20030;-72
2022/10/23 07:10:28;;;;;;;7.88;7.07;;;9.90;99.90;;;;;;5041541;28;20029;-72
2022/10/23 07:12:59;;;;;;;8.20;7.15;;;9.90;99.90;;;;;;5031518;28;20085;-73
2022/10/23 07:15:25;;;;;;;7.28;6.57;;;9.90;99.90;;;;;;5024891;28;20021;-72
2022/10/23 07:17:51;;;;;;;5.78;5.18;;;10.00;99.90;;;;;;5024572;28;20563;-72
2022/10/23 07:20:17;;;;;;;7.80;6.00;;;10.00;99.90;;;;;;5028884;28;20029;-71
2022/10/23 07:22:42;;;;;;;6.90;5.80;;;10.10;99.90;;;;;;5032520;28;20147;-71
2022/10/23 07:25:08;;;;;;;5.60;4.97;;;10.10;99.90;;;;;;5028519;28;20037;-71
2022/10/23 07:27:37;;;;;;;6.53;4.90;;;10.10;99.90;;;;;;5025109;28;20055;-72
2022/10/23 07:30:03;;;;;;;5.28;4.78;;;10.10;99.90;;;;;;5031145;28;20126;-74
2022/10/23 07:32:29;;;;;;;5.65;5.10;;;10.10;99.90;;;;;;5020845;28;20025;-73
2022/10/23 07:34:54;;;;;;;5.80;4.85;;;10.10;99.90;;;;;;5024318;28;20030;-73
2022/10/23 07:37:20;;;;;;;6.15;4.75;;;10.20;99.90;;;;;;5033982;28;20025;-73
2022/10/23 07:39:46;;;;;;;5.57;5.00;;;10.20;99.90;;;;;;5024953;28;20029;-73
2022/10/23 07:42:11;;;;;;;5.65;5.05;;;10.20;99.90;;;;;;5027164;28;20063;-73
2022/10/23 07:44:37;;;;;;;5.57;4.82;;;10.30;99.90;;;;;;5024701;28;20053;-73
2022/10/23 07:47:03;;;;;;;5.40;4.90;;;10.40;99.90;;;;;;5036655;28;20557;-75
2022/10/23 07:49:28;;;;;;;5.40;4.38;;;10.40;99.90;;;;;;5038171;28;20054;-75
2022/10/23 07:51:57;;;;;;;5.53;3.90;;;10.50;99.90;;;;;;5025607;28;20030;-75
2022/10/23 07:54:23;;;;;;;4.60;3.97;;;10.50;99.90;;;;;;5027894;28;20021;-75
2022/10/23 07:56:48;;;;;;;4.97;4.03;;;10.60;99.90;;;;;;5033449;28;20017;-75
2022/10/23 07:59:14;;;;;;;11.07;4.75;;;10.60;99.90;;;;;;5045254;28;20477;-75
2022/10/23 08:01:41;;;;;;;6.63;4.97;;;10.70;99.90;;;;;;5039812;28;20163;-76
2022/10/23 08:04:08;;;;;;;8.02;4.68;;;10.80;99.90;;;;;;5025429;28;20102;-75
2022/10/23 08:06:37;;;;;;;7.97;5.15;;;10.90;99.90;;;;;;5027216;28;20031;-75
2022/10/23 08:09:02;;;;;;;8.05;5.82;;;11.00;99.90;;;;;;5027659;28;20037;-76
2022/10/23 08:11:34;;;;;;;9.20;5.18;;;11.10;99.90;;;;;;5023459;28;20407;-76
2022/10/23 08:14:02;;;;;;;6.45;4.03;;;11.20;99.90;;;;;;5032549;28;20151;-75
2022/10/23 08:16:27;;;;;;;5.95;3.15;;;11.40;99.90;;;;;;5027976;28;20025;-75
2022/10/23 08:18:53;;;;;;;4.80;3.70;;;11.50;99.90;;;;;;5027011;28;20029;-74
2022/10/23 08:21:19;;;;;;;3.45;3.15;;;11.60;99.90;;;;;;5027004;28;20112;-74
2022/10/23 08:23:44;;;;;;;3.55;3.25;;;11.60;99.90;;;;;;5024040;28;20055;-75
2022/10/23 08:26:10;;;;;;;4.05;3.33;;;11.70;99.90;;;;;;5036819;28;20029;-74
2022/10/23 08:28:36;;;;;;;4.70;3.30;;;11.80;99.90;;;;;;5032469;28;20033;-75
2022/10/23 08:31:10;;;;;;;5.00;3.45;;;11.90;99.90;;;;;;5032116;28;20099;-75
2022/10/23 08:33:37;;;;;;;3.13;2.85;;;12.00;99.90;;;;;;5032440;28;20025;-75
2022/10/23 08:36:02;;;;;;;4.15;3.03;;;12.00;99.90;;;;;;5046699;28;20104;-75
2022/10/23 08:38:28;;;;;;;6.10;3.55;;;12.10;99.90;;;;;;5040805;28;20112;-75
2022/10/23 08:40:54;;;;;;;4.60;3.03;;;12.20;99.90;;;;;;5027549;28;20033;-74
2022/10/23 08:43:42;;;;;;;4.57;2.97;;;12.40;99.90;;;;;;5034370;28;20054;-75
2022/10/23 08:46:14;;;;;;;3.42;2.95;;;12.50;99.90;;;;;;5026934;28;20029;-75
2022/10/23 08:49:06;;;;;;;3.53;3.20;;;12.60;99.90;;;;;;5027043;28;20037;-74
2022/10/23 08:51:40;;;;;;;6.57;3.63;;;12.70;99.90;;;;;;5028036;28;20125;-75
2022/10/23 08:54:32;;;;;;;5.45;3.50;;;12.80;99.90;;;;;;5037945;28;20029;-74
2022/10/23 08:57:12;;;;;;;5.60;3.58;;;13.00;99.90;;;;;;5030413;28;20021;-74
2022/10/23 08:59:58;;;;;;;4.53;3.70;;;13.30;99.90;;;;;;5029164;28;20037;-75
2022/10/23 09:02:29;;;;;;;4.43;3.60;;;13.60;99.90;;;;;;5028962;28;20021;-75
2022/10/23 09:04:57;;;;;;;6.78;3.80;;;13.80;99.90;;;;;;5033998;28;20029;-75
2022/10/23 09:07:32;;;;;;;5.97;3.75;;;14.00;99.90;;;;;;5037085;28;20029;-75
2022/10/23 09:10:22;;;;;;;4.60;3.60;;;14.20;99.90;;;;;;5042258;28;20037;-75
2022/10/23 09:12:48;;;;;;;11.45;3.42;;;14.40;99.90;;;;;;5041608;28;20028;-75
2022/10/23 09:15:23;;;;;;;4.75;2.80;;;14.70;99.90;;;;;;5027817;28;20021;-75
2022/10/23 09:17:57;;;;;;;7.85;2.95;;;14.80;99.90;;;;;;5030141;28;20057;-75
2022/10/23 09:20:34;;;;;;;3.65;2.30;;;14.90;99.90;;;;;;5047902;28;20029;-75
2022/10/23 09:23:05;;;;;;;4.10;2.28;;;15.00;99.90;;;;;;5045708;28;20537;-74
2022/10/23 09:25:37;;;;;;;4.88;2.50;;;15.10;99.90;;;;;;5033905;28;20108;-75
2022/10/23 09:28:03;;;;;;;2.60;2.27;;;15.20;99.90;;;;;;5029096;28;20025;-75
2022/10/23 09:30:40;;;;;;;4.13;2.53;;;15.20;99.90;;;;;;5043746;28;20303;-74
2022/10/23 09:33:26;;;;;;;5.05;2.42;;;15.20;99.90;;;;;;5033720;28;20022;-74
2022/10/23 09:35:52;;;;;;;4.65;2.50;;;15.20;99.90;;;;;;5039215;28;20067;-74
2022/10/23 09:38:37;;;;;;;6.35;2.63;;;15.20;99.90;;;;;;5048160;28;20472;-74
2022/10/23 09:41:18;;;;;;;4.68;2.47;;;15.20;99.90;;;;;;5033261;28;20044;-74
2022/10/23 09:43:45;;;;;;;5.03;2.60;;;15.10;99.90;;;;;;5027577;28;20078;-74
2022/10/23 09:46:11;;;;;;;5.47;2.70;;;15.10;99.90;;;;;;5030139;28;20136;-75
2022/10/23 09:48:38;;;;;;;4.22;2.40;;;15.10;99.90;;;;;;5045442;28;20444;-74
2022/10/23 09:51:19;;;;;;;4.97;2.60;;;15.00;99.90;;;;;;5045168;28;20032;-75
2022/10/23 09:53:54;;;;;;;5.47;2.60;;;15.00;99.90;;;;;;5026458;28;20517;-74
2022/10/23 09:56:24;;;;;;;3.35;2.70;;;15.00;99.90;;;;;;5029953;28;20013;-74
2022/10/23 09:59:03;;;;;;;2.90;2.30;;;15.00;99.90;;;;;;5030856;28;20014;-75
2022/10/23 10:01:37;;;;;;;4.18;2.42;;;15.10;99.90;;;;;;5030498;28;20512;-75
2022/10/23 10:04:03;;;;;;;5.07;2.55;;;15.00;99.90;;;;;;5028963;28;20009;-74
2022/10/23 10:06:31;;;;;;;2.95;2.40;;;15.10;99.90;;;;;;5040196;28;20048;-75
2022/10/23 10:09:00;;;;;;;5.07;2.88;;;15.00;99.90;;;;;;5030760;28;20063;-75
2022/10/23 10:11:29;;;;;;;5.18;2.70;;;15.10;99.90;;;;;;5027063;28;20084;-75
2022/10/23 10:14:24;;;;;;;7.18;3.83;;;15.10;99.90;;;;;;5027013;28;20370;-75
2022/10/23 10:17:16;;;;;;;6.65;4.57;;;15.20;99.90;;;;;;5041039;28;20032;-75
2022/10/23 10:20:10;;;;;;;6.88;4.07;;;15.30;99.90;;;;;;5037430;28;20508;-74
2022/10/23 10:22:39;;;;;;;8.65;4.90;;;15.30;99.90;;;;;;5041412;28;20041;-72
2022/10/23 10:25:14;;;;;;;6.18;4.45;;;15.30;99.90;;;;;;5025909;28;20106;-74
2022/10/23 10:27:56;;;;;;;5.78;3.88;;;15.40;99.90;;;;;;5031348;28;20465;-74
2022/10/23 10:30:23;;;;;;;7.18;5.45;;;15.40;99.90;;;;;;5033002;28;20037;-74
2022/10/23 10:33:08;;;;;;;8.57;5.20;;;15.40;99.90;;;;;;5029410;28;20115;-74
2022/10/23 10:35:46;;;;;;;7.80;4.40;;;15.30;99.90;;;;;;5028416;28;20028;-74
2022/10/23 10:38:43;;;;;;;7.47;3.95;;;15.40;99.90;;;;;;5038661;28;20028;-74
2022/10/23 10:41:21;;;;;;;3.08;2.70;;;15.40;99.90;;;;;;5040091;28;20108;-74
2022/10/23 10:44:14;;;;;;;4.32;2.20;;;15.40;99.90;;;;;;5028014;28;20025;-73
2022/10/23 10:46:49;;;;;;;2.75;2.20;;;15.40;99.90;;;;;;5028552;28;20043;-74
2022/10/23 10:49:33;;;;;;;3.83;2.45;;;15.50;99.90;;;;;;5032326;28;20032;-73
2022/10/23 10:52:15;;;;;;;5.50;1.98;;;15.50;99.90;;;;;;5038805;28;20118;-73
2022/10/23 10:55:04;;;;;;;7.53;2.33;;;15.50;99.90;;;;;;5040137;28;20025;-73
2022/10/23 10:57:45;;;;;;;8.88;3.25;;;15.50;99.90;;;;;;5037079;28;20431;-74
2022/10/23 11:00:18;;;;;;;6.90;2.90;;;15.50;99.90;;;;;;5032895;28;20029;-74
2022/10/23 11:02:59;;;;;;;6.72;2.65;;;15.60;99.90;;;;;;5025117;28;20792;-74
2022/10/23 11:05:36;;;;;;;5.28;3.00;;;15.70;99.90;;;;;;5026552;28;20033;-74
2022/10/23 11:08:12;;;;;;;5.95;3.13;;;15.70;99.90;;;;;;5037409;28;20029;-74
2022/10/23 11:10:43;;;;;;;4.90;2.22;;;15.80;99.90;;;;;;5032182;28;20044;-73
2022/10/23 11:13:32;;;;;;;6.15;2.33;;;15.80;99.90;;;;;;5026106;28;20300;-74
2022/10/23 11:16:03;;;;;;;7.10;2.55;;;15.90;99.90;;;;;;5030010;28;20020;-74
2022/10/23 11:18:31;;;;;;;4.72;2.08;;;15.90;99.90;;;;;;5040139;28;20386;-74
2022/10/23 11:21:24;;;;;;;3.42;2.08;;;15.90;99.90;;;;;;5041250;28;20044;-74
2022/10/23 11:24:07;;;;;;;6.40;2.30;;;15.90;99.90;;;;;;5029746;28;20490;-74
2022/10/23 11:26:51;;;;;;;5.65;1.90;;;15.90;99.90;;;;;;5029755;28;20112;-74
2022/10/23 11:29:35;;;;;;;4.25;1.83;;;15.90;99.90;;;;;;5040358;28;20582;-74
2022/10/23 11:32:10;;;;;;;;;;;15.90;99.90;;;;;;5030176;28;20032;-73
2022/10/23 11:34:38;;;;;;;3.28;1.80;;;16.00;99.90;;;;;;5025367;28;19920;-75
2022/10/23 11:37:05;;;;;;;2.25;1.90;;;16.00;99.90;;;;;;5029851;28;20040;-74
2022/10/23 11:39:33;;;;;;;4.82;1.90;;;16.10;99.90;;;;;;5026714;28;20033;-74
2022/10/23 11:42:13;;;;;;;8.13;2.13;;;16.10;99.90;;;;;;5028076;28;20029;-74
2022/10/23 11:44:47;;;;;;;6.82;2.08;;;16.20;99.90;;;;;;5022824;28;20033;-74
2022/10/23 11:47:24;;;;;;;6.07;1.70;;;16.20;99.90;;;;;;5027082;28;20040;-74
2022/10/23 11:49:51;;;;;;;10.25;2.55;;;16.20;99.90;;;;;;5039500;28;20052;-75
2022/10/23 11:52:22;;;;;;;2.58;1.80;;;16.20;99.90;;;;;;5044794;28;20032;-74
2022/10/23 11:54:48;;;;;;;4.22;2.20;;;16.20;99.90;;;;;;5028402;28;20072;-74
2022/10/23 11:57:16;;;;;;;6.72;2.33;;;16.20;99.90;;;;;;5029064;28;20049;-73
2022/10/23 11:59:44;;;;;;;5.65;2.08;;;16.10;99.90;;;;;;5036287;28;20037;-74
2022/10/23 12:02:32;;;;;;;3.60;2.30;;;16.10;99.90;;;;;;5032042;28;20035;-73
2022/10/23 12:05:01;;;;;;;6.05;2.50;;;16.10;99.90;;;;;;5033985;28;20496;-73
2022/10/23 12:07:34;;;;;;;4.03;2.35;;;16.00;99.90;;;;;;5026436;28;20045;-73
2022/10/23 12:10:16;;;;;;;4.82;2.28;;;16.00;99.90;;;;;;5026229;28;20033;-73
2022/10/23 12:12:42;;;;;;;6.57;2.60;;;15.90;99.90;;;;;;5025528;28;20030;-73
2022/10/23 12:15:10;;;;;;;4.18;2.42;;;15.90;99.90;;;;;;5026109;28;20083;-74
2022/10/23 12:17:38;;;;;;;4.15;2.25;;;15.90;99.90;;;;;;5042639;28;20013;-74
2022/10/23 12:20:07;;;;;;;7.10;2.70;;;15.80;99.90;;;;;;5030743;28;20534;-74
2022/10/23 12:22:46;;;;;;;6.55;2.60;;;15.80;99.90;;;;;;5035679;28;20026;-74
2022/10/23 12:25:16;;;;;;;4.70;2.58;;;15.80;99.90;;;;;;5033558;28;20162;-74
2022/10/23 12:27:59;;;;;;;3.78;2.20;;;15.80;99.90;;;;;;5045039;28;20104;-73
2022/10/23 12:31:06;;;;;;;5.68;2.00;;;15.90;99.90;;;;;;5041195;28;20394;-73
2022/10/23 12:33:40;;;;;;;3.53;2.05;;;15.80;99.90;;;;;;5038165;28;20307;-74
2022/10/23 12:36:27;;;;;;;5.97;2.70;;;15.80;99.90;;;;;;5043541;28;20021;-74
2022/10/23 12:38:54;;;;;;;3.65;2.47;;;15.80;99.90;;;;;;5046379;28;20411;-74
2022/10/23 12:41:30;;;;;;;3.45;2.70;;;15.80;99.90;;;;;;5037727;28;20040;-73
2022/10/23 12:44:09;;;;;;;3.58;2.70;;;15.80;99.90;;;;;;5024085;28;20037;-74
2022/10/23 12:46:40;;;;;;;5.85;2.65;;;15.80;99.90;;;;;;5028533;28;20040;-74
2022/10/23 12:49:23;;;;;;;4.68;2.78;;;15.80;99.90;;;;;;5042661;28;20033;-73
2022/10/23 12:52:01;;;;;;;4.57;2.70;;;15.80;99.90;;;;;;5030626;28;20063;-74
2022/10/23 12:54:29;;;;;;;2.90;2.22;;;15.80;99.90;;;;;;5024661;28;20029;-74
2022/10/23 12:56:54;;;;;;;9.07;2.47;;;15.80;99.90;;;;;;5029206;28;20017;-74
2022/10/23 12:59:26;;;;;;;1.92;1.73;;;15.80;99.90;;;;;;5027133;28;20388;-74
2022/10/23 13:01:53;;;;;;;5.93;2.03;;;15.80;99.90;;;;;;5026368;28;20022;-73
2022/10/23 13:04:33;;;;;;;2.80;1.70;;;15.80;99.90;;;;;;5029184;28;20671;-73
2022/10/23 13:07:01;;;;;;;3.20;1.90;;;15.80;99.90;;;;;;5038476;28;20056;-73
2022/10/23 13:09:38;;;;;;;10.38;1.85;;;15.90;99.90;;;;;;5040991;28;20019;-74
2022/10/23 13:12:05;;;;;;;5.20;1.70;;;16.00;99.90;;;;;;5027060;28;20032;-73